Terminal Aerodrome Forecast
Issued by NWS Binghamton, NY

Home | Current Version | Previous Version | Text Only | Print | Product List | Glossary On
Versions: 1 2 3 4 5 6 7 8 9 10 11 12 13 14 15 16 17
000
FTUS41 KBGM 242342
TAFSYR
TAF
KSYR 242342Z 2500/2524 16010KT P6SM BKN080 WS020/20045KT
     FM251300 19015G30KT P6SM SCT025 BKN040
      TEMPO 2518/2520 3SM SHRA BR OVC015
     FM252000 29015G25KT P6SM -SHRASN SCT025 BKN035=

USA.gov is the U.S. government's official web portal to all federal, state and local government web resources and services.